METAR Data
IDs: Format: Raw Decoded Include TAF

Data at: 0123 UTC 25 Mar 2019

KCSQ 250115Z AUTO 01012KT 1/4SM FG OVC002 07/07 A3006 RMK AO2
KCSQ 250055Z AUTO 02009KT 1/2SM BR OVC002 07/07 A3006 RMK AO2
KCSQ 250035Z AUTO 02010KT 1/2SM FG OVC003 07/07 A3005 RMK AO2
KCSQ 250015Z AUTO 02011G16KT 1SM BR OVC003 07/07 A3004 RMK AO2
KCSQ 242355Z AUTO 01010KT 1SM BR OVC003 08/07 A3004 RMK AO2
KCSQ 242335Z AUTO 01010KT 1 3/4SM BR OVC004 08/07 A3003 RMK AO2
KCSQ 242315Z AUTO 01013KT 1 1/2SM BR OVC004 08/07 A3002 RMK AO2
KCSQ 242255Z AUTO 01014KT 1SM BR OVC004 08/08 A3001 RMK AO2
KCSQ 242235Z AUTO 01011G19KT 3/4SM BR OVC003 08/08 A3001 RMK AO2
KCSQ 242215Z AUTO 35013G18KT 2 1/2SM BR BKN005 OVC010 09/09 A3000 RMK AO2
KCSQ 242155Z AUTO 01009KT 6SM BR OVC009 09/09 A3000 RMK AO2
KCSQ 242135Z AUTO 01008KT 7SM OVC006 09/09 A2999 RMK AO2
KCSQ 242115Z AUTO 000KT 8SM OVC006 10/09 A2998 RMK AO2
KCSQ 242055Z AUTO 00000KT 9SM OVC006 10/09 A2998 RMK AO2
KCSQ 242035Z AUTO 05004KT 8SM OVC006 09/09 A2997 RMK AO2
KCSQ 242015Z AUTO 05005KT 9SM OVC005 09/09 A2997 RMK AO2
KCSQ 241955Z AUTO 05005KT 9SM OVC006 09/09 A2996 RMK AO2
KCSQ 241935Z AUTO 35005KT 8SM OVC005 09/09 A2996 RMK AO2
KCSQ 241915Z AUTO 03004KT 9SM OVC005 09/09 A2996 RMK AO2
KCSQ 241855Z AUTO 06004KT 9SM OVC006 09/09 A2996 RMK AO2
KCSQ 241835Z AUTO 07006KT 8SM OVC005 09/09 A2996 RMK AO2
KCSQ 241815Z AUTO 07007KT 9SM OVC005 09/09 A2996 RMK AO2
KCSQ 241755Z AUTO 08008KT 5SM BR OVC003 09/09 A2996 RMK AO2
KCSQ 241735Z AUTO 06007KT 2SM BR OVC002 08/08 A2996 RMK AO2
KCSQ 241715Z AUTO 07008KT 1/2SM FG OVC002 08/08 A2996 RMK AO2
KCSQ 241655Z AUTO 06008KT 3/4SM BR OVC003 08/08 A2996 RMK AO2
KCSQ 241635Z AUTO 07007KT 1 1/2SM BR OVC003 08/08 A2997 RMK AO2
KCSQ 241615Z AUTO 07008KT 3SM BR OVC003 08/08 A2997 RMK AO2
KCSQ 241555Z AUTO 08007KT 4SM BR OVC005 08/08 A2997 RMK AO2
KCSQ 241535Z AUTO 05008KT 1 3/4SM -RA OVC005 08/08 A2996 RMK AO2
KCSQ 241515Z AUTO 07006KT 4SM BR OVC005 08/08 A2997 RMK AO2
KCSQ 241455Z AUTO 07005KT 6SM BR OVC007 08/08 A2996 RMK AO2
KCSQ 241435Z AUTO 11004KT 6SM -RA BKN008 BKN013 OVC022 08/08 A2995 RMK AO2
KCSQ 241415Z AUTO 14005KT 3SM -RA BKN008 08/08 A2995 RMK AO2
KCSQ 241355Z AUTO 14004KT 3SM -RA OVC007 08/08 A2995 RMK AO2
KCSQ 241335Z AUTO 14005KT 7SM OVC007 08/08 A2995 RMK AO2
KCSQ 241315Z AUTO 14006KT 7SM OVC007 08/08 A2995 RMK AO2
KCSQ 241255Z AUTO 14006KT 7SM BKN010 OVC016 08/07 A2994 RMK AO2
KCSQ 241235Z AUTO 14007KT 5SM BR BKN015 OVC034 08/07 A2995 RMK AO2
KCSQ 241215Z AUTO 15007KT 8SM FEW013 FEW022 OVC033 08/08 A2995 RMK AO2
KCSQ 241155Z AUTO 15007KT 8SM BKN012 OVC035 08/08 A2994 RMK AO2
KCSQ 241135Z AUTO 15007KT OVC012 08/08 A2995 RMK AO2
KCSQ 241115Z AUTO 16007KT 10SM OVC012 08/08 A2995 RMK AO2
KCSQ 241055Z AUTO 15008KT 10SM OVC014 08/08 A2995 RMK AO2
KCSQ 241035Z AUTO 15008KT 10SM BKN016 BKN024 OVC038 08/08 A2995 RMK AO2
KCSQ 241015Z AUTO 15007KT 10SM SCT017 OVC023 08/08 A2996 RMK AO2
KCSQ 240955Z AUTO 14007KT 10SM OVC018 08/08 A2996 RMK AO2
KCSQ 240935Z AUTO 14006KT 10SM BKN021 BKN032 OVC050 08/08 A2995 RMK AO2
KCSQ 240915Z AUTO 14007KT 10SM FEW023 BKN032 OVC040 08/08 A2996 RMK AO2
KCSQ 240855Z AUTO 14008KT 10SM BKN039 OVC046 08/08 A2996 RMK AO2
KCSQ 240835Z AUTO 15008KT 10SM FEW021 SCT032 OVC038 08/08 A2997 RMK AO2
KCSQ 240815Z AUTO 14007KT 10SM BKN022 OVC030 08/08 A2998 RMK AO2
KCSQ 240755Z AUTO 15008KT 10SM BKN027 OVC036 08/08 A2998 RMK AO2
KCSQ 240735Z AUTO 14008KT 10SM FEW024 BKN029 OVC036 09/08 A2998 RMK AO2
KCSQ 240715Z AUTO 15009KT 10SM BKN018 BKN024 OVC036 09/09 A2999 RMK AO2
KCSQ 240655Z AUTO 14008KT 10SM FEW009 OVC018 09/09 A2999 RMK AO2
KCSQ 240635Z AUTO 15008KT 10SM OVC020 09/09 A3000 RMK AO2
KCSQ 240615Z AUTO 16010KT 10SM BKN021 BKN026 OVC030 09/09 A3000 RMK AO2
KCSQ 240555Z AUTO 15007KT 10SM SCT011 BKN025 OVC030 09/08 A3000 RMK AO2
KCSQ 240535Z AUTO 14009KT 10SM SCT012 BKN020 OVC025 09/08 A3000 RMK AO2
KCSQ 240515Z AUTO 15009KT 10SM OVC024 09/08 A3001 RMK AO2
KCSQ 240455Z AUTO 15009KT 10SM OVC026 08/07 A3001 RMK AO2
KCSQ 240435Z AUTO 13009KT 10SM OVC029 08/07 A3001 RMK AO2
KCSQ 240415Z AUTO 12006KT 8SM BKN029 OVC035 08/07 A3002 RMK AO2
KCSQ 240355Z AUTO 13005KT 8SM OVC032 08/06 A3003 RMK AO2
KCSQ 240335Z AUTO 12007KT 10SM OVC033 08/06 A3003 RMK AO2
KCSQ 240315Z AUTO 12008KT 10SM BKN030 OVC034 08/06 A3003 RMK AO2
KCSQ 240255Z AUTO 11009KT 10SM OVC031 08/06 A3003 RMK AO2
KCSQ 240235Z AUTO 11009KT 10SM OVC034 08/06 A3003 RMK AO2
KCSQ 240215Z AUTO 09009KT 10SM OVC036 08/06 A3003 RMK AO2
KCSQ 240155Z AUTO 09010KT 10SM OVC040 08/06 A3003 RMK AO2
KCSQ 240135Z AUTO 08008KT 10SM OVC037 08/07 A3003 RMK AO2
KCSQ 240115Z AUTO 09009KT 10SM OVC034 08/07 A3003 RMK AO2
KCSQ 240055Z AUTO 09008KT 9SM BKN034 OVC040 08/07 A3004 RMK AO2
KCSQ 240035Z AUTO 09007KT 10SM OVC040 08/07 A3004 RMK AO2
KCSQ 240015Z AUTO 08008KT 10SM OVC043 08/07 A3004 RMK AO2
KCSQ 232355Z AUTO 09009KT 10SM OVC042 08/07 A3005 RMK AO2
KCSQ 232335Z AUTO 11006KT 9SM FEW027 SCT035 OVC042 08/07 A3006 RMK AO2
KCSQ 232315Z AUTO 11006KT 3SM -RA BKN036 OVC042 08/07 A3006 RMK AO2
KCSQ 232255Z AUTO 13007KT 4SM HZ BKN040 BKN047 OVC055 09/06 A3006 RMK AO2
KCSQ 232235Z AUTO 11012KT 7SM BKN060 BKN075 10/04 A3005 RMK AO2
KCSQ 232215Z AUTO 12012G18KT 10SM FEW080 FEW100 12/03 A3006 RMK AO2
KCSQ 232155Z AUTO 11012KT 10SM BKN085 12/03 A3006 RMK AO2
KCSQ 232135Z AUTO 09012KT 10SM BKN080 12/03 A3005 RMK AO2
KCSQ 232115Z AUTO 12010G17KT 10SM SCT080 12/02 A3007 RMK AO2
KCSQ 232055Z AUTO 13016KT 10SM OVC080 12/02 A3008 RMK AO2
KCSQ 232035Z AUTO 11012G20KT BKN080 BKN090 12/02 A3008 RMK AO2
KCSQ 232015Z AUTO 11016KT 10SM BKN085 12/02 A3008 RMK AO2
KCSQ 231955Z AUTO 11012KT 10SM FEW095 12/01 A3008 RMK AO2
KCSQ 231935Z AUTO 13014KT 10SM BKN095 12/01 A3009 RMK AO2
KCSQ 231915Z AUTO 11014KT 10SM BKN100 12/02 A3009 RMK AO2
KCSQ 231855Z AUTO 12015KT 10SM BKN100 12/01 A3009 RMK AO2
KCSQ 231835Z AUTO 11017KT 10SM FEW065 BKN110 11/02 A3010 RMK AO2
KCSQ 231815Z AUTO 11015KT 10SM FEW055 BKN100 11/03 A3011 RMK AO2
KCSQ 231755Z AUTO 12011KT 10SM FEW050 SCT060 09/02 A3013 RMK AO2
KCSQ 231735Z AUTO 14012KT 10SM FEW060 09/02 A3015 RMK AO2
KCSQ 231715Z AUTO 12009KT 10SM FEW042 FEW055 09/02 A3014 RMK AO2
KCSQ 231655Z AUTO 16008KT 10SM FEW060 09/01 A3017 RMK AO2
KCSQ 231635Z AUTO 17008KT 10SM CLR 09/01 A3017 RMK AO2
KCSQ 231615Z AUTO 12012KT 10SM CLR 09/01 A3015 RMK AO2
KCSQ 231555Z AUTO 13011KT 10SM FEW036 08/01 A3016 RMK AO2
KCSQ 231535Z AUTO 13010KT 10SM CLR 08/01 A3016 RMK AO2
KCSQ 231515Z AUTO 12009KT 10SM CLR 08/01 A3016 RMK AO2
KCSQ 231455Z AUTO 13011KT 10SM CLR 07/01 A3015 RMK AO2
KCSQ 231435Z AUTO 13013KT 10SM CLR 07/01 A3016 RMK AO2
KCSQ 231415Z AUTO 13011KT 10SM CLR 06/00 A3016 RMK AO2
KCSQ 231355Z AUTO 13011KT 10SM CLR 05/00 A3017 RMK AO2
KCSQ 231335Z AUTO 10009KT 10SM CLR 03/M00 A3017 RMK AO2